sensor_id;sensor_type;location;lat;lon;timestamp;temperature;humidity
29201;DHT22;16244;51.956;12.980;2023-07-31T00:02:23;16.40;99.90
29201;DHT22;16244;51.956;12.980;2023-07-31T00:04:51;16.40;99.90
29201;DHT22;16244;51.956;12.980;2023-07-31T00:07:18;16.40;99.90
29201;DHT22;16244;51.956;12.980;2023-07-31T00:09:46;16.40;99.90
29201;DHT22;16244;51.956;12.980;2023-07-31T00:12:15;16.30;99.90
29201;DHT22;16244;51.956;12.980;2023-07-31T00:14:42;16.40;99.90
29201;DHT22;16244;51.956;12.980;2023-07-31T00:17:10;16.40;99.90
29201;DHT22;16244;51.956;12.980;2023-07-31T00:19:37;16.40;99.90
29201;DHT22;16244;51.956;12.980;2023-07-31T00:22:05;16.30;99.90
29201;DHT22;16244;51.956;12.980;2023-07-31T00:24:32;16.30;99.90
29201;DHT22;16244;51.956;12.980;2023-07-31T00:27:05;16.30;99.90
29201;DHT22;16244;51.956;12.980;2023-07-31T00:29:39;16.20;99.90
29201;DHT22;16244;51.956;12.980;2023-07-31T00:32:11;16.30;99.90
29201;DHT22;16244;51.956;12.980;2023-07-31T00:34:41;16.30;99.90
29201;DHT22;16244;51.956;12.980;2023-07-31T00:37:12;16.30;99.90
29201;DHT22;16244;51.956;12.980;2023-07-31T00:39:41;16.30;99.90
29201;DHT22;16244;51.956;12.980;2023-07-31T00:42:09;16.30;99.90
29201;DHT22;16244;51.956;12.980;2023-07-31T00:44:36;16.30;99.90
29201;DHT22;16244;51.956;12.980;2023-07-31T00:47:06;16.30;99.90
29201;DHT22;16244;51.956;12.980;2023-07-31T00:49:33;16.20;99.90
29201;DHT22;16244;51.956;12.980;2023-07-31T00:52:01;16.20;99.90
29201;DHT22;16244;51.956;12.980;2023-07-31T00:54:28;16.30;99.90
29201;DHT22;16244;51.956;12.980;2023-07-31T00:56:56;16.30;99.90
29201;DHT22;16244;51.956;12.980;2023-07-31T00:59:24;16.30;99.90
29201;DHT22;16244;51.956;12.980;2023-07-31T01:01:52;16.30;99.90
29201;DHT22;16244;51.956;12.980;2023-07-31T01:04:21;16.20;99.90
29201;DHT22;16244;51.956;12.980;2023-07-31T01:06:55;16.10;99.90
29201;DHT22;16244;51.956;12.980;2023-07-31T01:09:30;16.20;99.90
29201;DHT22;16244;51.956;12.980;2023-07-31T01:12:02;16.10;99.90
29201;DHT22;16244;51.956;12.980;2023-07-31T01:14:30;16.10;99.90
29201;DHT22;16244;51.956;12.980;2023-07-31T01:16:57;16.10;99.90
29201;DHT22;16244;51.956;12.980;2023-07-31T01:19:26;16.10;99.90
29201;DHT22;16244;51.956;12.980;2023-07-31T01:22:12;16.10;99.90
29201;DHT22;16244;51.956;12.980;2023-07-31T01:24:49;16.00;99.90
29201;DHT22;16244;51.956;12.980;2023-07-31T01:27:23;16.00;99.90
29201;DHT22;16244;51.956;12.980;2023-07-31T01:29:56;16.00;99.90
29201;DHT22;16244;51.956;12.980;2023-07-31T01:32:29;15.90;99.90
29201;DHT22;16244;51.956;12.980;2023-07-31T01:34:58;16.00;99.90
29201;DHT22;16244;51.956;12.980;2023-07-31T01:37:28;16.00;99.90
29201;DHT22;16244;51.956;12.980;2023-07-31T01:39:56;16.00;99.90
29201;DHT22;16244;51.956;12.980;2023-07-31T01:42:24;16.00;99.90
29201;DHT22;16244;51.956;12.980;2023-07-31T01:44:52;16.00;99.90
29201;DHT22;16244;51.956;12.980;2023-07-31T01:47:19;16.00;99.90
29201;DHT22;16244;51.956;12.980;2023-07-31T01:49:47;16.00;99.90
29201;DHT22;16244;51.956;12.980;2023-07-31T01:52:14;16.00;99.90
29201;DHT22;16244;51.956;12.980;2023-07-31T01:54:42;16.00;99.90
29201;DHT22;16244;51.956;12.980;2023-07-31T01:57:09;16.00;99.90
29201;DHT22;16244;51.956;12.980;2023-07-31T01:59:39;16.00;99.90
29201;DHT22;16244;51.956;12.980;2023-07-31T02:02:06;16.00;99.90
29201;DHT22;16244;51.956;12.980;2023-07-31T02:04:34;16.00;99.90
29201;DHT22;16244;51.956;12.980;2023-07-31T02:07:01;16.10;99.90
29201;DHT22;16244;51.956;12.980;2023-07-31T02:09:29;16.10;99.90
29201;DHT22;16244;51.956;12.980;2023-07-31T02:11:57;16.10;99.90
29201;DHT22;16244;51.956;12.980;2023-07-31T02:14:26;16.10;99.90
29201;DHT22;16244;51.956;12.980;2023-07-31T02:16:55;16.10;99.90
29201;DHT22;16244;51.956;12.980;2023-07-31T02:19:22;16.10;99.90
29201;DHT22;16244;51.956;12.980;2023-07-31T02:21:50;16.00;99.90
29201;DHT22;16244;51.956;12.980;2023-07-31T02:24:17;16.00;99.90
29201;DHT22;16244;51.956;12.980;2023-07-31T02:26:45;16.00;99.90
29201;DHT22;16244;51.956;12.980;2023-07-31T02:29:12;16.00;99.90
29201;DHT22;16244;51.956;12.980;2023-07-31T02:31:39;16.00;99.90
29201;DHT22;16244;51.956;12.980;2023-07-31T02:34:08;16.00;99.90
29201;DHT22;16244;51.956;12.980;2023-07-31T02:36:36;15.90;99.90
29201;DHT22;16244;51.956;12.980;2023-07-31T02:39:03;15.90;99.90
29201;DHT22;16244;51.956;12.980;2023-07-31T02:41:31;15.90;99.90
29201;DHT22;16244;51.956;12.980;2023-07-31T02:43:58;15.90;99.90
29201;DHT22;16244;51.956;12.980;2023-07-31T02:46:25;15.90;99.90
29201;DHT22;16244;51.956;12.980;2023-07-31T02:48:53;15.90;99.90
29201;DHT22;16244;51.956;12.980;2023-07-31T02:51:22;15.80;99.90
29201;DHT22;16244;51.956;12.980;2023-07-31T02:53:49;15.70;99.90
29201;DHT22;16244;51.956;12.980;2023-07-31T02:56:16;15.80;99.90
29201;DHT22;16244;51.956;12.980;2023-07-31T02:58:44;15.70;99.90
29201;DHT22;16244;51.956;12.980;2023-07-31T03:01:11;15.80;99.90
29201;DHT22;16244;51.956;12.980;2023-07-31T03:03:40;15.70;99.90
29201;DHT22;16244;51.956;12.980;2023-07-31T03:06:08;15.70;99.90
29201;DHT22;16244;51.956;12.980;2023-07-31T03:08:36;15.70;99.90
29201;DHT22;16244;51.956;12.980;2023-07-31T03:11:04;15.70;99.90
29201;DHT22;16244;51.956;12.980;2023-07-31T03:13:31;15.70;99.90
29201;DHT22;16244;51.956;12.980;2023-07-31T03:15:59;15.60;99.90
29201;DHT22;16244;51.956;12.980;2023-07-31T03:18:26;15.60;99.90
29201;DHT22;16244;51.956;12.980;2023-07-31T03:20:53;15.60;99.90
29201;DHT22;16244;51.956;12.980;2023-07-31T03:23:21;15.60;99.90
29201;DHT22;16244;51.956;12.980;2023-07-31T03:26:00;15.50;99.90
29201;DHT22;16244;51.956;12.980;2023-07-31T03:28:29;15.60;99.90
29201;DHT22;16244;51.956;12.980;2023-07-31T03:30:57;15.60;99.90
29201;DHT22;16244;51.956;12.980;2023-07-31T03:33:24;15.70;99.90
29201;DHT22;16244;51.956;12.980;2023-07-31T03:35:52;15.70;99.90
29201;DHT22;16244;51.956;12.980;2023-07-31T03:38:19;15.70;99.90
29201;DHT22;16244;51.956;12.980;2023-07-31T03:40:47;15.70;99.90
29201;DHT22;16244;51.956;12.980;2023-07-31T03:43:16;15.60;99.90
29201;DHT22;16244;51.956;12.980;2023-07-31T03:45:44;15.60;99.90
29201;DHT22;16244;51.956;12.980;2023-07-31T03:48:14;15.60;99.90
29201;DHT22;16244;51.956;12.980;2023-07-31T03:50:42;15.60;99.90
29201;DHT22;16244;51.956;12.980;2023-07-31T03:53:11;15.70;99.90
29201;DHT22;16244;51.956;12.980;2023-07-31T03:55:40;15.60;99.90
29201;DHT22;16244;51.956;12.980;2023-07-31T03:58:07;15.60;99.90
29201;DHT22;16244;51.956;12.980;2023-07-31T04:00:36;15.60;99.90
29201;DHT22;16244;51.956;12.980;2023-07-31T04:03:03;15.60;99.90
29201;DHT22;16244;51.956;12.980;2023-07-31T04:05:32;15.70;99.90
29201;DHT22;16244;51.956;12.980;2023-07-31T04:07:59;15.70;99.90
29201;DHT22;16244;51.956;12.980;2023-07-31T04:10:26;15.60;99.90
29201;DHT22;16244;51.956;12.980;2023-07-31T04:12:54;15.70;99.90
29201;DHT22;16244;51.956;12.980;2023-07-31T04:15:22;15.60;99.90
29201;DHT22;16244;51.956;12.980;2023-07-31T04:17:51;15.60;99.90
29201;DHT22;16244;51.956;12.980;2023-07-31T04:20:18;15.60;99.90
29201;DHT22;16244;51.956;12.980;2023-07-31T04:22:45;15.60;99.90
29201;DHT22;16244;51.956;12.980;2023-07-31T04:25:13;15.60;99.90
29201;DHT22;16244;51.956;12.980;2023-07-31T04:27:40;15.60;99.90
29201;DHT22;16244;51.956;12.980;2023-07-31T04:30:08;15.60;99.90
29201;DHT22;16244;51.956;12.980;2023-07-31T04:32:36;15.60;99.90
29201;DHT22;16244;51.956;12.980;2023-07-31T04:35:05;15.60;99.90
29201;DHT22;16244;51.956;12.980;2023-07-31T04:37:33;15.70;99.90
29201;DHT22;16244;51.956;12.980;2023-07-31T04:40:01;15.70;99.90
29201;DHT22;16244;51.956;12.980;2023-07-31T04:42:30;15.70;99.90
29201;DHT22;16244;51.956;12.980;2023-07-31T04:44:58;15.70;99.90
29201;DHT22;16244;51.956;12.980;2023-07-31T04:47:26;15.70;99.90
29201;DHT22;16244;51.956;12.980;2023-07-31T04:49:53;15.80;99.90
29201;DHT22;16244;51.956;12.980;2023-07-31T04:52:22;15.80;99.90
29201;DHT22;16244;51.956;12.980;2023-07-31T04:54:49;15.80;99.90
29201;DHT22;16244;51.956;12.980;2023-07-31T04:57:17;15.90;99.90
29201;DHT22;16244;51.956;12.980;2023-07-31T04:59:44;15.80;99.90
29201;DHT22;16244;51.956;12.980;2023-07-31T05:02:12;15.80;99.90
29201;DHT22;16244;51.956;12.980;2023-07-31T05:04:40;15.80;99.90
29201;DHT22;16244;51.956;12.980;2023-07-31T05:07:07;15.80;99.90
29201;DHT22;16244;51.956;12.980;2023-07-31T05:09:36;15.80;99.90
29201;DHT22;16244;51.956;12.980;2023-07-31T05:12:06;15.70;99.90
29201;DHT22;16244;51.956;12.980;2023-07-31T05:14:33;15.70;99.90
29201;DHT22;16244;51.956;12.980;2023-07-31T05:17:01;15.70;99.90
29201;DHT22;16244;51.956;12.980;2023-07-31T05:19:28;15.70;99.90
29201;DHT22;16244;51.956;12.980;2023-07-31T05:21:55;15.80;99.90
29201;DHT22;16244;51.956;12.980;2023-07-31T05:24:23;15.80;99.90
29201;DHT22;16244;51.956;12.980;2023-07-31T05:26:52;15.80;99.90
29201;DHT22;16244;51.956;12.980;2023-07-31T05:29:19;15.90;99.90
29201;DHT22;16244;51.956;12.980;2023-07-31T05:31:47;15.90;99.90
29201;DHT22;16244;51.956;12.980;2023-07-31T05:34:14;15.80;99.90
29201;DHT22;16244;51.956;12.980;2023-07-31T05:36:41;15.80;99.90
29201;DHT22;16244;51.956;12.980;2023-07-31T05:39:09;15.80;99.90
29201;DHT22;16244;51.956;12.980;2023-07-31T05:41:36;15.90;99.90
29201;DHT22;16244;51.956;12.980;2023-07-31T05:44:05;15.90;99.90
29201;DHT22;16244;51.956;12.980;2023-07-31T05:46:33;15.90;99.90
29201;DHT22;16244;51.956;12.980;2023-07-31T05:49:00;15.90;99.90
29201;DHT22;16244;51.956;12.980;2023-07-31T05:51:28;16.00;99.90
29201;DHT22;16244;51.956;12.980;2023-07-31T05:53:55;15.90;99.90
29201;DHT22;16244;51.956;12.980;2023-07-31T05:56:23;15.90;99.90
29201;DHT22;16244;51.956;12.980;2023-07-31T05:58:50;16.00;99.90
29201;DHT22;16244;51.956;12.980;2023-07-31T06:01:19;16.00;99.90
29201;DHT22;16244;51.956;12.980;2023-07-31T06:03:47;16.00;99.90
29201;DHT22;16244;51.956;12.980;2023-07-31T06:06:14;16.10;99.90
29201;DHT22;16244;51.956;12.980;2023-07-31T06:08:42;16.10;99.90
29201;DHT22;16244;51.956;12.980;2023-07-31T06:11:09;16.20;99.90
29201;DHT22;16244;51.956;12.980;2023-07-31T06:13:37;16.20;99.90
29201;DHT22;16244;51.956;12.980;2023-07-31T06:16:04;16.20;99.90
29201;DHT22;16244;51.956;12.980;2023-07-31T06:18:33;16.10;99.90
29201;DHT22;16244;51.956;12.980;2023-07-31T06:21:01;16.20;99.90
29201;DHT22;16244;51.956;12.980;2023-07-31T06:23:28;16.30;99.90
29201;DHT22;16244;51.956;12.980;2023-07-31T06:25:56;16.30;99.90
29201;DHT22;16244;51.956;12.980;2023-07-31T06:28:27;16.30;99.90
29201;DHT22;16244;51.956;12.980;2023-07-31T06:30:55;16.30;99.90
29201;DHT22;16244;51.956;12.980;2023-07-31T06:33:23;16.30;99.90
29201;DHT22;16244;51.956;12.980;2023-07-31T06:35:52;16.20;99.90
29201;DHT22;16244;51.956;12.980;2023-07-31T06:38:24;16.10;99.90
29201;DHT22;16244;51.956;12.980;2023-07-31T06:40:52;16.10;99.90
29201;DHT22;16244;51.956;12.980;2023-07-31T06:43:19;16.10;99.90
29201;DHT22;16244;51.956;12.980;2023-07-31T06:45:47;16.10;99.90
29201;DHT22;16244;51.956;12.980;2023-07-31T06:48:17;16.10;99.90
29201;DHT22;16244;51.956;12.980;2023-07-31T06:50:44;16.20;99.90
29201;DHT22;16244;51.956;12.980;2023-07-31T06:53:13;16.30;99.90
29201;DHT22;16244;51.956;12.980;2023-07-31T06:55:41;16.30;99.90
29201;DHT22;16244;51.956;12.980;2023-07-31T06:58:08;16.40;99.90
29201;DHT22;16244;51.956;12.980;2023-07-31T07:00:36;16.30;99.90
29201;DHT22;16244;51.956;12.980;2023-07-31T07:03:03;16.30;99.90
29201;DHT22;16244;51.956;12.980;2023-07-31T07:05:31;16.30;99.90
29201;DHT22;16244;51.956;12.980;2023-07-31T07:07:58;16.30;99.90
29201;DHT22;16244;51.956;12.980;2023-07-31T07:10:27;16.30;99.90
29201;DHT22;16244;51.956;12.980;2023-07-31T07:12:55;16.30;99.90
29201;DHT22;16244;51.956;12.980;2023-07-31T07:15:22;16.40;99.90
29201;DHT22;16244;51.956;12.980;2023-07-31T07:17:50;16.50;99.90
29201;DHT22;16244;51.956;12.980;2023-07-31T07:20:17;16.60;99.90
29201;DHT22;16244;51.956;12.980;2023-07-31T07:22:46;16.60;99.90
29201;DHT22;16244;51.956;12.980;2023-07-31T07:25:13;16.60;99.90
29201;DHT22;16244;51.956;12.980;2023-07-31T07:27:42;16.70;99.90
29201;DHT22;16244;51.956;12.980;2023-07-31T07:30:10;16.80;99.90
29201;DHT22;16244;51.956;12.980;2023-07-31T07:32:38;16.70;99.90
29201;DHT22;16244;51.956;12.980;2023-07-31T07:35:06;16.70;99.90
29201;DHT22;16244;51.956;12.980;2023-07-31T07:37:34;16.70;99.90
29201;DHT22;16244;51.956;12.980;2023-07-31T07:40:01;16.80;99.90
29201;DHT22;16244;51.956;12.980;2023-07-31T07:42:29;16.80;99.90
29201;DHT22;16244;51.956;12.980;2023-07-31T07:44:58;16.70;99.90
29201;DHT22;16244;51.956;12.980;2023-07-31T07:47:25;16.70;99.90
29201;DHT22;16244;51.956;12.980;2023-07-31T07:49:52;16.80;99.90
29201;DHT22;16244;51.956;12.980;2023-07-31T07:52:20;16.90;99.90
29201;DHT22;16244;51.956;12.980;2023-07-31T07:54:47;16.90;99.90
29201;DHT22;16244;51.956;12.980;2023-07-31T07:57:15;17.00;99.90
29201;DHT22;16244;51.956;12.980;2023-07-31T07:59:42;17.10;99.90
29201;DHT22;16244;51.956;12.980;2023-07-31T08:02:11;17.10;99.90
29201;DHT22;16244;51.956;12.980;2023-07-31T08:04:39;17.10;99.90
29201;DHT22;16244;51.956;12.980;2023-07-31T08:07:06;17.10;99.90
29201;DHT22;16244;51.956;12.980;2023-07-31T08:09:33;17.00;99.90
29201;DHT22;16244;51.956;12.980;2023-07-31T08:12:01;17.10;99.90
29201;DHT22;16244;51.956;12.980;2023-07-31T08:14:29;17.20;99.90
29201;DHT22;16244;51.956;12.980;2023-07-31T08:16:57;17.20;99.90
29201;DHT22;16244;51.956;12.980;2023-07-31T08:19:25;17.30;99.90
29201;DHT22;16244;51.956;12.980;2023-07-31T08:21:53;17.40;99.90
29201;DHT22;16244;51.956;12.980;2023-07-31T08:24:21;17.50;99.90
29201;DHT22;16244;51.956;12.980;2023-07-31T08:26:48;17.50;99.90
29201;DHT22;16244;51.956;12.980;2023-07-31T08:29:15;17.40;99.90
29201;DHT22;16244;51.956;12.980;2023-07-31T08:33:49;17.50;99.90
29201;DHT22;16244;51.956;12.980;2023-07-31T08:36:17;17.50;99.90
29201;DHT22;16244;51.956;12.980;2023-07-31T08:38:45;17.60;99.90
29201;DHT22;16244;51.956;12.980;2023-07-31T08:41:13;17.80;99.90
29201;DHT22;16244;51.956;12.980;2023-07-31T08:43:41;18.10;99.90
29201;DHT22;16244;51.956;12.980;2023-07-31T08:46:09;18.50;99.90
29201;DHT22;16244;51.956;12.980;2023-07-31T08:48:37;19.10;99.90
29201;DHT22;16244;51.956;12.980;2023-07-31T08:51:06;19.80;99.90
29201;DHT22;16244;51.956;12.980;2023-07-31T08:53:34;20.40;99.90
29201;DHT22;16244;51.956;12.980;2023-07-31T08:56:02;20.90;99.90
29201;DHT22;16244;51.956;12.980;2023-07-31T08:58:31;21.00;99.90
29201;DHT22;16244;51.956;12.980;2023-07-31T09:01:01;21.20;99.90
29201;DHT22;16244;51.956;12.980;2023-07-31T09:03:33;21.30;97.80
29201;DHT22;16244;51.956;12.980;2023-07-31T09:06:02;21.60;98.40
29201;DHT22;16244;51.956;12.980;2023-07-31T09:08:32;21.80;96.90
29201;DHT22;16244;51.956;12.980;2023-07-31T09:11:00;22.20;95.50
29201;DHT22;16244;51.956;12.980;2023-07-31T09:13:28;22.70;96.80
29201;DHT22;16244;51.956;12.980;2023-07-31T09:15:56;22.90;91.50
29201;DHT22;16244;51.956;12.980;2023-07-31T09:18:24;23.00;92.40
29201;DHT22;16244;51.956;12.980;2023-07-31T09:21:01;23.10;92.90
29201;DHT22;16244;51.956;12.980;2023-07-31T09:23:42;23.10;89.00
29201;DHT22;16244;51.956;12.980;2023-07-31T09:26:10;22.80;92.00
29201;DHT22;16244;51.956;12.980;2023-07-31T09:28:38;22.40;92.70
29201;DHT22;16244;51.956;12.980;2023-07-31T09:31:05;22.00;93.80
29201;DHT22;16244;51.956;12.980;2023-07-31T09:33:33;21.80;93.30
29201;DHT22;16244;51.956;12.980;2023-07-31T09:36:01;21.50;96.30
29201;DHT22;16244;51.956;12.980;2023-07-31T09:38:31;21.20;95.40
29201;DHT22;16244;51.956;12.980;2023-07-31T09:41:00;21.10;96.70
29201;DHT22;16244;51.956;12.980;2023-07-31T09:43:28;20.90;96.40
29201;DHT22;16244;51.956;12.980;2023-07-31T09:45:57;20.80;96.20
29201;DHT22;16244;51.956;12.980;2023-07-31T09:48:24;20.70;97.80
29201;DHT22;16244;51.956;12.980;2023-07-31T09:50:54;20.70;96.80
29201;DHT22;16244;51.956;12.980;2023-07-31T09:53:28;20.80;96.50
29201;DHT22;16244;51.956;12.980;2023-07-31T09:55:59;21.00;96.50
29201;DHT22;16244;51.956;12.980;2023-07-31T09:58:28;21.10;96.70
29201;DHT22;16244;51.956;12.980;2023-07-31T10:00:58;21.30;95.60
29201;DHT22;16244;51.956;12.980;2023-07-31T10:03:26;21.20;95.00
29201;DHT22;16244;51.956;12.980;2023-07-31T10:05:55;21.10;95.80
29201;DHT22;16244;51.956;12.980;2023-07-31T10:08:28;20.90;96.50
29201;DHT22;16244;51.956;12.980;2023-07-31T10:11:00;20.90;94.80
29201;DHT22;16244;51.956;12.980;2023-07-31T10:13:30;20.80;97.30
29201;DHT22;16244;51.956;12.980;2023-07-31T10:15:59;20.80;93.70
29201;DHT22;16244;51.956;12.980;2023-07-31T10:18:27;20.80;94.00
29201;DHT22;16244;51.956;12.980;2023-07-31T10:20:56;20.80;93.30
29201;DHT22;16244;51.956;12.980;2023-07-31T10:23:25;20.80;93.00
29201;DHT22;16244;51.956;12.980;2023-07-31T10:25:53;20.70;94.20
29201;DHT22;16244;51.956;12.980;2023-07-31T10:28:22;20.70;94.00
29201;DHT22;16244;51.956;12.980;2023-07-31T10:30:51;20.70;94.50
29201;DHT22;16244;51.956;12.980;2023-07-31T10:33:20;20.70;94.80
29201;DHT22;16244;51.956;12.980;2023-07-31T10:35:47;20.70;95.60
29201;DHT22;16244;51.956;12.980;2023-07-31T10:38:15;20.80;92.50
29201;DHT22;16244;51.956;12.980;2023-07-31T10:40:43;20.90;94.60
29201;DHT22;16244;51.956;12.980;2023-07-31T10:43:25;20.80;91.50
29201;DHT22;16244;51.956;12.980;2023-07-31T10:45:53;20.80;93.80
29201;DHT22;16244;51.956;12.980;2023-07-31T10:48:21;21.00;92.80
29201;DHT22;16244;51.956;12.980;2023-07-31T10:50:51;21.20;92.90
29201;DHT22;16244;51.956;12.980;2023-07-31T10:53:24;21.30;93.60
29201;DHT22;16244;51.956;12.980;2023-07-31T10:55:51;21.30;92.50
29201;DHT22;16244;51.956;12.980;2023-07-31T10:58:20;21.10;92.30
29201;DHT22;16244;51.956;12.980;2023-07-31T11:00:49;21.10;93.20
29201;DHT22;16244;51.956;12.980;2023-07-31T11:03:18;21.00;92.20
29201;DHT22;16244;51.956;12.980;2023-07-31T11:05:51;21.00;92.50
29201;DHT22;16244;51.956;12.980;2023-07-31T11:08:23;21.00;93.00
29201;DHT22;16244;51.956;12.980;2023-07-31T11:11:04;21.00;92.80
29201;DHT22;16244;51.956;12.980;2023-07-31T11:13:33;20.80;90.60
29201;DHT22;16244;51.956;12.980;2023-07-31T11:16:02;20.60;92.50
29201;DHT22;16244;51.956;12.980;2023-07-31T11:18:30;20.70;93.10
29201;DHT22;16244;51.956;12.980;2023-07-31T11:20:57;20.80;93.70
29201;DHT22;16244;51.956;12.980;2023-07-31T11:23:25;20.80;93.50
29201;DHT22;16244;51.956;12.980;2023-07-31T11:25:53;20.90;93.60
29201;DHT22;16244;51.956;12.980;2023-07-31T11:28:26;20.90;92.80
29201;DHT22;16244;51.956;12.980;2023-07-31T11:30:55;20.90;93.60
29201;DHT22;16244;51.956;12.980;2023-07-31T11:33:24;20.90;93.70
29201;DHT22;16244;51.956;12.980;2023-07-31T11:35:53;20.90;94.10
29201;DHT22;16244;51.956;12.980;2023-07-31T11:38:22;21.00;93.80
29201;DHT22;16244;51.956;12.980;2023-07-31T11:40:51;21.00;93.50
29201;DHT22;16244;51.956;12.980;2023-07-31T11:43:19;21.20;93.60
29201;DHT22;16244;51.956;12.980;2023-07-31T11:45:48;21.20;93.30
29201;DHT22;16244;51.956;12.980;2023-07-31T11:48:20;21.20;92.70
29201;DHT22;16244;51.956;12.980;2023-07-31T11:50:50;21.20;92.90
29201;DHT22;16244;51.956;12.980;2023-07-31T11:53:22;21.00;92.70
29201;DHT22;16244;51.956;12.980;2023-07-31T11:55:51;20.90;93.50
29201;DHT22;16244;51.956;12.980;2023-07-31T11:58:19;20.70;93.90
29201;DHT22;16244;51.956;12.980;2023-07-31T12:00:47;20.60;94.90
29201;DHT22;16244;51.956;12.980;2023-07-31T12:03:15;20.50;95.10
29201;DHT22;16244;51.956;12.980;2023-07-31T12:05:43;20.50;95.40
29201;DHT22;16244;51.956;12.980;2023-07-31T12:08:12;20.50;96.20
29201;DHT22;16244;51.956;12.980;2023-07-31T12:10:40;20.50;95.60
29201;DHT22;16244;51.956;12.980;2023-07-31T12:13:09;20.50;94.70
29201;DHT22;16244;51.956;12.980;2023-07-31T12:15:41;20.40;95.00
29201;DHT22;16244;51.956;12.980;2023-07-31T12:18:10;20.50;95.20
29201;DHT22;16244;51.956;12.980;2023-07-31T12:20:42;20.50;95.40
29201;DHT22;16244;51.956;12.980;2023-07-31T12:23:16;20.50;96.10
29201;DHT22;16244;51.956;12.980;2023-07-31T12:25:44;20.50;97.80
29201;DHT22;16244;51.956;12.980;2023-07-31T12:28:11;20.50;97.30
29201;DHT22;16244;51.956;12.980;2023-07-31T12:30:40;20.70;97.90
29201;DHT22;16244;51.956;12.980;2023-07-31T12:33:13;20.70;98.70
29201;DHT22;16244;51.956;12.980;2023-07-31T12:35:43;20.60;99.30
29201;DHT22;16244;51.956;12.980;2023-07-31T12:38:11;20.50;99.00
29201;DHT22;16244;51.956;12.980;2023-07-31T12:40:41;20.40;99.90
29201;DHT22;16244;51.956;12.980;2023-07-31T12:43:09;20.50;99.90
29201;DHT22;16244;51.956;12.980;2023-07-31T12:45:37;20.50;99.90
29201;DHT22;16244;51.956;12.980;2023-07-31T12:48:04;20.50;99.90
29201;DHT22;16244;51.956;12.980;2023-07-31T12:50:32;20.50;98.40
29201;DHT22;16244;51.956;12.980;2023-07-31T12:53:02;20.60;99.20
29201;DHT22;16244;51.956;12.980;2023-07-31T12:55:30;20.70;98.30
29201;DHT22;16244;51.956;12.980;2023-07-31T12:58:00;20.60;98.10
29201;DHT22;16244;51.956;12.980;2023-07-31T13:00:27;20.80;98.00
29201;DHT22;16244;51.956;12.980;2023-07-31T13:02:55;20.80;97.80
29201;DHT22;16244;51.956;12.980;2023-07-31T13:05:22;20.90;97.20
29201;DHT22;16244;51.956;12.980;2023-07-31T13:07:50;21.00;97.60
29201;DHT22;16244;51.956;12.980;2023-07-31T13:10:18;21.00;96.40
29201;DHT22;16244;51.956;12.980;2023-07-31T13:12:45;21.00;95.70
29201;DHT22;16244;51.956;12.980;2023-07-31T13:15:14;21.10;95.80
29201;DHT22;16244;51.956;12.980;2023-07-31T13:17:42;21.30;96.10
29201;DHT22;16244;51.956;12.980;2023-07-31T13:20:10;21.60;94.90
29201;DHT22;16244;51.956;12.980;2023-07-31T13:22:38;21.90;93.10
29201;DHT22;16244;51.956;12.980;2023-07-31T13:25:06;22.30;93.30
29201;DHT22;16244;51.956;12.980;2023-07-31T13:27:34;22.70;89.80
29201;DHT22;16244;51.956;12.980;2023-07-31T13:30:02;23.10;89.00
29201;DHT22;16244;51.956;12.980;2023-07-31T13:32:31;23.40;80.20
29201;DHT22;16244;51.956;12.980;2023-07-31T13:34:59;23.40;81.30
29201;DHT22;16244;51.956;12.980;2023-07-31T13:37:26;23.10;80.40
29201;DHT22;16244;51.956;12.980;2023-07-31T13:39:54;22.60;84.50
29201;DHT22;16244;51.956;12.980;2023-07-31T13:42:21;22.40;88.30
29201;DHT22;16244;51.956;12.980;2023-07-31T13:44:49;22.30;88.30
29201;DHT22;16244;51.956;12.980;2023-07-31T13:47:16;22.10;82.20
29201;DHT22;16244;51.956;12.980;2023-07-31T13:49:45;22.00;86.00
29201;DHT22;16244;51.956;12.980;2023-07-31T13:52:12;22.20;83.20
29201;DHT22;16244;51.956;12.980;2023-07-31T13:54:40;22.20;83.20
29201;DHT22;16244;51.956;12.980;2023-07-31T13:57:09;22.30;84.60
29201;DHT22;16244;51.956;12.980;2023-07-31T13:59:37;22.30;81.50
29201;DHT22;16244;51.956;12.980;2023-07-31T14:02:04;22.20;81.70
29201;DHT22;16244;51.956;12.980;2023-07-31T14:04:32;22.00;78.80
29201;DHT22;16244;51.956;12.980;2023-07-31T14:07:01;21.90;78.80
29201;DHT22;16244;51.956;12.980;2023-07-31T14:09:29;21.90;80.70
29201;DHT22;16244;51.956;12.980;2023-07-31T14:11:57;21.70;81.40
29201;DHT22;16244;51.956;12.980;2023-07-31T14:14:24;21.60;80.50
29201;DHT22;16244;51.956;12.980;2023-07-31T14:16:52;21.60;82.30
29201;DHT22;16244;51.956;12.980;2023-07-31T14:19:19;21.70;80.60
29201;DHT22;16244;51.956;12.980;2023-07-31T14:21:46;21.80;82.00
29201;DHT22;16244;51.956;12.980;2023-07-31T14:24:15;21.90;81.10
29201;DHT22;16244;51.956;12.980;2023-07-31T14:26:43;22.00;83.20
29201;DHT22;16244;51.956;12.980;2023-07-31T14:29:10;22.10;79.60
29201;DHT22;16244;51.956;12.980;2023-07-31T14:31:37;22.20;81.60
29201;DHT22;16244;51.956;12.980;2023-07-31T14:34:05;22.30;81.20
29201;DHT22;16244;51.956;12.980;2023-07-31T14:36:32;22.40;79.60
29201;DHT22;16244;51.956;12.980;2023-07-31T14:39:00;22.40;77.70
29201;DHT22;16244;51.956;12.980;2023-07-31T14:41:28;22.50;78.60
29201;DHT22;16244;51.956;12.980;2023-07-31T14:43:56;22.40;77.60
29201;DHT22;16244;51.956;12.980;2023-07-31T14:46:23;22.40;79.80
29201;DHT22;16244;51.956;12.980;2023-07-31T14:48:51;22.30;79.70
29201;DHT22;16244;51.956;12.980;2023-07-31T14:51:19;22.30;78.30
29201;DHT22;16244;51.956;12.980;2023-07-31T14:53:46;22.10;81.00
29201;DHT22;16244;51.956;12.980;2023-07-31T14:56:14;22.00;80.20
29201;DHT22;16244;51.956;12.980;2023-07-31T14:58:43;21.80;79.90
29201;DHT22;16244;51.956;12.980;2023-07-31T15:01:10;21.60;82.30
29201;DHT22;16244;51.956;12.980;2023-07-31T15:03:37;21.60;85.40
29201;DHT22;16244;51.956;12.980;2023-07-31T15:06:05;21.60;83.50
29201;DHT22;16244;51.956;12.980;2023-07-31T15:08:34;21.50;85.90
29201;DHT22;16244;51.956;12.980;2023-07-31T15:11:02;21.50;86.20
29201;DHT22;16244;51.956;12.980;2023-07-31T15:13:30;21.50;84.00
29201;DHT22;16244;51.956;12.980;2023-07-31T15:15:59;21.50;82.40
29201;DHT22;16244;51.956;12.980;2023-07-31T15:18:26;21.40;84.40
29201;DHT22;16244;51.956;12.980;2023-07-31T15:20:54;21.40;84.10
29201;DHT22;16244;51.956;12.980;2023-07-31T15:23:22;21.40;84.50
29201;DHT22;16244;51.956;12.980;2023-07-31T15:25:50;21.30;83.70